createdAt,value
2019-05-02T00:01:18.707Z,99335.98
2019-05-02T00:03:47.227Z,99338.48
2019-05-02T00:06:16.182Z,99331.80
2019-05-02T00:08:44.851Z,99337.31
2019-05-02T00:11:13.899Z,99334.40
2019-05-02T00:13:42.439Z,99341.00
2019-05-02T00:16:14.122Z,99339.11
2019-05-02T00:18:41.138Z,99336.00
2019-05-02T00:21:09.886Z,99339.69
2019-05-02T00:23:38.425Z,99330.13
2019-05-02T00:26:06.958Z,99325.20
2019-05-02T00:28:35.456Z,99333.36
2019-05-02T00:31:07.453Z,99333.24
2019-05-02T00:33:35.867Z,99330.48
2019-05-02T00:36:04.741Z,99333.11
2019-05-02T00:38:37.889Z,99321.11
2019-05-02T00:41:03.746Z,99320.72
2019-05-02T00:43:34.467Z,99323.85
2019-05-02T00:46:02.322Z,99314.45
2019-05-02T00:48:37.845Z,99311.12
2019-05-02T00:51:06.295Z,99310.78
2019-05-02T00:53:34.693Z,99304.97
2019-05-02T00:56:05.157Z,99302.57
2019-05-02T00:58:33.195Z,99294.67
2019-05-02T01:01:11.687Z,99300.92
2019-05-02T01:03:41.802Z,99307.04
2019-05-02T01:06:14.376Z,99302.14
2019-05-02T01:08:40.445Z,99307.75
2019-05-02T01:11:09.285Z,99305.10
2019-05-02T01:13:37.696Z,99307.17
2019-05-02T01:16:06.172Z,99213.34
2019-05-02T01:18:37.300Z,99304.72
2019-05-02T01:21:04.699Z,99309.22
2019-05-02T01:23:33.120Z,99298.86
2019-05-02T01:26:01.511Z,99303.62
2019-05-02T01:28:54.213Z,99300.83
2019-05-02T01:31:23.943Z,99294.17
2019-05-02T01:33:53.994Z,99298.84
2019-05-02T01:36:29.500Z,99292.93
2019-05-02T01:38:57.892Z,99291.27
2019-05-02T01:41:29.114Z,99289.95
2019-05-02T01:44:00.050Z,99295.54
2019-05-02T01:46:26.527Z,99297.42
2019-05-02T01:48:54.920Z,99299.42
2019-05-02T01:51:23.437Z,99287.74
2019-05-02T01:53:51.865Z,99292.02
2019-05-02T01:56:20.249Z,99290.08
2019-05-02T01:58:48.633Z,99291.08
2019-05-02T02:01:21.399Z,99287.94
2019-05-02T02:03:49.112Z,99286.09
2019-05-02T02:06:17.538Z,99294.54
2019-05-02T02:08:45.913Z,99291.13
2019-05-02T02:11:14.453Z,99286.48
2019-05-02T02:13:42.838Z,99285.70
2019-05-02T02:16:11.221Z,99287.19
2019-05-02T02:18:41.529Z,99287.20
2019-05-02T02:21:25.464Z,99289.99
2019-05-02T02:23:54.427Z,99293.78
2019-05-02T02:26:24.180Z,99285.88
2019-05-02T02:28:52.621Z,99292.63
2019-05-02T02:31:21.964Z,99292.02
2019-05-02T02:33:50.630Z,99292.55
2019-05-02T02:36:30.021Z,99286.02
2019-05-02T02:38:49.283Z,99286.34
2019-05-02T02:41:17.657Z,99282.40
2019-05-02T02:43:47.701Z,99281.11
2019-05-02T02:46:20.482Z,99279.80
2019-05-02T02:48:48.884Z,99283.09
2019-05-02T02:51:23.816Z,99281.61
2019-05-02T02:53:47.495Z,99273.22
2019-05-02T02:56:15.944Z,99276.37
2019-05-02T02:58:46.053Z,99274.89
2019-05-02T03:01:14.410Z,99277.17
2019-05-02T03:03:42.882Z,99279.27
2019-05-02T03:06:11.315Z,99270.75
2019-05-02T03:08:46.078Z,99278.34
2019-05-02T03:11:22.298Z,99279.53
2019-05-02T03:13:53.116Z,99277.87
2019-05-02T03:16:24.258Z,99283.33
2019-05-02T03:18:52.825Z,99277.53
2019-05-02T03:21:22.501Z,99281.17
2019-05-02T03:24:01.588Z,99277.55
2019-05-02T03:28:35.055Z,99278.84
2019-05-02T03:31:21.741Z,99280.02
2019-05-02T03:33:51.607Z,99280.20
2019-05-02T03:36:04.420Z,99278.72
2019-05-02T03:38:35.265Z,99275.89
2019-05-02T03:41:03.248Z,99278.52
2019-05-02T03:43:31.915Z,99279.36
2019-05-02T03:46:00.633Z,99280.34
2019-05-02T03:48:29.010Z,99274.27
2019-05-02T03:50:57.481Z,99279.17
2019-05-02T03:53:27.700Z,99275.58
2019-05-02T03:55:56.720Z,99280.16
2019-05-02T03:58:25.409Z,99267.98
2019-05-02T04:01:00.429Z,99268.13
2019-05-02T04:03:25.245Z,99266.14
2019-05-02T04:05:53.731Z,99267.42
2019-05-02T04:08:22.702Z,99262.16
2019-05-02T04:10:59.395Z,99271.38
2019-05-02T04:13:30.149Z,99281.41
2019-05-02T04:15:58.706Z,99239.90
2019-05-02T04:18:27.247Z,99276.67
2019-05-02T04:20:55.700Z,99277.83
2019-05-02T04:23:27.741Z,99281.73
2019-05-02T04:25:55.811Z,99275.98
2019-05-02T04:28:25.135Z,99275.16
2019-05-02T04:30:54.047Z,99287.45
2019-05-02T04:33:22.574Z,99292.02
2019-05-02T04:35:51.117Z,99283.79
2019-05-02T04:38:24.501Z,99288.06
2019-05-02T04:40:49.779Z,99286.53
2019-05-02T04:43:18.511Z,99290.59
2019-05-02T04:45:55.828Z,99289.88
2019-05-02T04:48:18.402Z,99282.28
2019-05-02T04:50:48.264Z,99286.84
2019-05-02T04:53:18.857Z,99285.79
2019-05-02T04:55:52.044Z,99291.80
2019-05-02T04:58:27.637Z,99290.39
2019-05-02T05:00:53.603Z,99289.23
2019-05-02T05:03:21.129Z,99292.45
2019-05-02T05:05:48.368Z,99296.62
2019-05-02T05:08:26.053Z,99294.55
2019-05-02T05:10:47.991Z,99293.09
2019-05-02T05:13:21.595Z,99296.91
2019-05-02T05:15:51.292Z,99295.06
2019-05-02T05:18:17.700Z,99300.16
2019-05-02T05:20:53.074Z,99299.17
2019-05-02T05:23:21.313Z,99305.44
2019-05-02T05:25:50.628Z,99299.84
2019-05-02T05:28:20.087Z,99295.96
2019-05-02T05:30:51.935Z,99297.13
2019-05-02T05:33:18.674Z,99301.15
2019-05-02T05:35:48.767Z,99302.34
2019-05-02T05:38:18.182Z,99300.02
2019-05-02T05:40:47.860Z,99298.61
2019-05-02T05:43:20.333Z,99305.88
2019-05-02T05:45:53.565Z,99301.03
2019-05-02T05:48:18.406Z,99306.71
2019-05-02T05:50:47.757Z,99304.72
2019-05-02T05:53:17.380Z,99309.45
2019-05-02T05:55:47.356Z,99309.45
2019-05-02T05:58:18.524Z,99304.66
2019-05-02T06:00:53.620Z,99304.61
2019-05-02T06:03:17.895Z,99292.99
2019-05-02T06:05:47.737Z,99289.28
2019-05-02T06:08:18.425Z,99289.28
2019-05-02T06:10:46.297Z,99293.63
2019-05-02T06:13:14.691Z,99297.86
2019-05-02T06:15:45.837Z,99294.64
2019-05-02T06:18:13.232Z,99261.05
2019-05-02T06:20:41.733Z,99255.50
2019-05-02T06:23:10.150Z,99287.20
2019-05-02T06:25:42.215Z,99291.05
2019-05-02T06:28:09.058Z,99294.89
2019-05-02T06:30:37.458Z,99297.56
2019-05-02T06:33:05.947Z,99287.04
2019-05-02T06:35:34.426Z,99287.04
2019-05-02T06:38:02.836Z,99288.51
2019-05-02T06:40:31.267Z,99294.34
2019-05-02T06:43:04.319Z,99287.35
2019-05-02T06:45:40.425Z,99287.55
2019-05-02T06:48:17.189Z,99295.21
2019-05-02T06:50:40.560Z,99295.61
2019-05-02T06:53:11.057Z,99299.36
2019-05-02T06:55:39.582Z,99285.66
2019-05-02T06:58:08.348Z,99284.70
2019-05-02T07:00:51.678Z,99284.16
2019-05-02T07:03:10.235Z,99283.23
2019-05-02T07:05:37.541Z,99277.30
2019-05-02T07:08:11.196Z,99278.52
2019-05-02T07:10:44.437Z,99281.45
2019-05-02T07:13:10.819Z,99278.39
2019-05-02T07:15:40.357Z,99274.21
2019-05-02T07:18:12.100Z,99278.31
2019-05-02T07:20:42.345Z,99286.00
2019-05-02T07:23:15.875Z,99283.68
2019-05-02T07:25:43.864Z,99284.04
2019-05-02T07:28:10.960Z,99283.59
2019-05-02T07:30:39.907Z,99284.84
2019-05-02T07:33:08.318Z,99285.89
2019-05-02T07:35:36.768Z,99286.47
2019-05-02T07:38:05.174Z,99282.81
2019-05-02T07:40:33.625Z,99285.57
2019-05-02T07:43:02.512Z,99281.92
2019-05-02T07:45:31.040Z,99277.45
2019-05-02T07:48:01.433Z,99279.19
2019-05-02T07:50:29.759Z,99281.27
2019-05-02T07:52:58.235Z,99280.28
2019-05-02T07:55:26.851Z,99281.25
2019-05-02T07:57:55.263Z,99272.84
2019-05-02T08:00:24.146Z,99274.48
2019-05-02T08:02:52.709Z,99278.44
2019-05-02T08:05:23.655Z,99273.56
2019-05-02T08:07:53.340Z,99279.52
2019-05-02T08:10:24.043Z,99272.55
2019-05-02T08:12:52.459Z,99272.88
2019-05-02T08:15:20.899Z,99278.27
2019-05-02T08:17:53.803Z,99270.39
2019-05-02T08:20:21.229Z,99287.62
2019-05-02T08:22:50.419Z,99272.27
2019-05-02T08:25:19.502Z,99275.76
2019-05-02T08:27:52.340Z,99273.67
2019-05-02T08:30:22.915Z,99271.05
2019-05-02T08:32:51.457Z,99275.64
2019-05-02T08:35:19.998Z,99282.14
2019-05-02T08:37:48.422Z,99279.70
2019-05-02T08:40:16.976Z,99269.47
2019-05-02T08:42:45.531Z,99267.38
2019-05-02T08:45:14.273Z,99253.09
2019-05-02T08:47:42.844Z,99259.16
2019-05-02T08:50:11.605Z,99257.40
2019-05-02T08:52:42.300Z,99255.98
2019-05-02T08:55:11.056Z,99248.91
2019-05-02T08:57:39.595Z,99242.86
2019-05-02T09:00:10.547Z,99242.31
2019-05-02T09:02:41.620Z,99243.74
2019-05-02T09:05:09.396Z,99237.31
2019-05-02T09:07:39.368Z,99236.22
2019-05-02T09:10:08.761Z,99237.04
2019-05-02T09:12:43.679Z,99239.59
2019-05-02T09:15:07.838Z,99232.23
2019-05-02T09:17:38.855Z,99230.23
2019-05-02T09:20:15.103Z,99217.34
2019-05-02T09:22:38.221Z,99214.33
2019-05-02T09:25:09.773Z,99215.87
2019-05-02T09:27:38.210Z,99209.08
2019-05-02T09:30:17.057Z,99210.21
2019-05-02T09:32:43.338Z,99206.43
2019-05-02T09:35:12.905Z,99202.01
2019-05-02T09:37:42.042Z,99203.00
2019-05-02T09:40:16.347Z,99196.55
2019-05-02T09:42:42.952Z,99197.30
2019-05-02T09:45:16.551Z,99183.37
2019-05-02T09:47:56.271Z,99184.14
2019-05-02T09:50:20.493Z,99183.79
2019-05-02T09:52:47.412Z,99176.86
2019-05-02T09:55:17.268Z,99174.75
2019-05-02T09:57:47.254Z,99171.73
2019-05-02T10:00:32.231Z,99175.26
2019-05-02T10:02:59.132Z,99167.72
2019-05-02T10:05:27.559Z,99165.28
2019-05-02T10:07:57.538Z,99161.78
2019-05-02T10:10:27.026Z,99166.28
2019-05-02T10:12:55.443Z,99164.71
2019-05-02T10:15:24.010Z,99159.73
2019-05-02T10:17:52.501Z,99156.27
2019-05-02T10:20:23.603Z,99152.71
2019-05-02T10:22:52.949Z,99148.80
2019-05-02T10:25:23.179Z,99144.77
2019-05-02T10:27:52.328Z,99140.66
2019-05-02T10:30:23.135Z,99137.70
2019-05-02T10:32:56.009Z,99137.02
2019-05-02T10:35:28.182Z,99139.42
2019-05-02T10:37:53.543Z,99122.74
2019-05-02T10:40:22.563Z,99119.00
2019-05-02T10:42:52.249Z,99110.37
2019-05-02T10:45:22.509Z,99115.87
2019-05-02T10:47:52.686Z,99111.91
2019-05-02T10:50:23.008Z,99103.97
2019-05-02T10:52:52.712Z,99108.15
2019-05-02T10:55:23.661Z,99107.07
2019-05-02T10:57:52.676Z,99098.67
2019-05-02T11:00:24.696Z,99087.05
2019-05-02T11:03:11.957Z,99087.03
2019-05-02T11:05:42.055Z,99091.53
2019-05-02T11:08:11.989Z,99089.03
2019-05-02T11:10:42.258Z,99088.63
2019-05-02T11:13:18.204Z,99089.66
2019-05-02T11:16:05.934Z,99084.84
2019-05-02T11:18:54.439Z,99083.03
2019-05-02T11:21:23.060Z,99075.64
2019-05-02T11:23:52.619Z,99065.91
2019-05-02T11:26:24.886Z,99065.78
2019-05-02T11:28:52.107Z,99070.48
2019-05-02T11:31:21.883Z,99070.59
2019-05-02T11:33:52.726Z,99070.38
2019-05-02T11:36:22.303Z,99063.20
2019-05-02T11:39:00.399Z,99060.88
2019-05-02T11:41:22.440Z,99050.25
2019-05-02T11:43:54.140Z,99054.61
2019-05-02T11:46:22.077Z,99057.42
2019-05-02T11:48:56.295Z,99043.66
2019-05-02T11:51:22.657Z,99053.27
2019-05-02T11:53:52.618Z,99060.98
2019-05-02T11:56:22.297Z,99061.66
2019-05-02T11:58:52.630Z,99058.17
2019-05-02T12:01:34.967Z,99050.72
2019-05-02T12:03:52.580Z,99039.87
2019-05-02T12:06:22.509Z,99038.55
2019-05-02T12:08:52.641Z,99040.69
2019-05-02T12:11:22.811Z,99040.04
2019-05-02T12:13:52.903Z,99042.02
2019-05-02T12:16:22.962Z,99037.31
2019-05-02T12:18:53.583Z,99037.55
2019-05-02T12:21:22.868Z,99033.02
2019-05-02T12:23:52.752Z,99017.91
2019-05-02T12:26:22.062Z,99020.88
2019-05-02T12:28:52.678Z,99016.09
2019-05-02T12:31:26.969Z,99012.77
2019-05-02T12:33:56.482Z,99009.69
2019-05-02T12:36:24.880Z,99005.58
2019-05-02T12:38:53.427Z,99012.38
2019-05-02T12:41:24.988Z,99003.50
2019-05-02T12:43:52.499Z,99007.56
2019-05-02T12:46:22.211Z,98989.72
2019-05-02T12:48:51.989Z,98995.16
2019-05-02T12:51:22.584Z,98997.59
2019-05-02T12:53:52.862Z,99005.86
2019-05-02T12:56:22.874Z,99011.31
2019-05-02T12:58:52.991Z,99012.56
2019-05-02T13:01:21.953Z,99004.58
2019-05-02T13:03:52.314Z,98996.70
2019-05-02T13:06:22.002Z,98995.04
2019-05-02T13:08:52.529Z,98987.90
2019-05-02T13:11:25.377Z,98986.80
2019-05-02T13:13:53.874Z,98989.16
2019-05-02T13:16:22.712Z,98984.17
2019-05-02T13:18:57.150Z,98976.28
2019-05-02T13:21:41.469Z,98973.14
2019-05-02T13:24:07.444Z,98959.76
2019-05-02T13:26:34.930Z,98966.13
2019-05-02T13:29:03.446Z,98964.03
2019-05-02T13:31:36.238Z,98963.63
2019-05-02T13:34:15.866Z,98959.98
2019-05-02T13:36:47.552Z,98956.84
2019-05-02T13:39:34.685Z,98950.78
2019-05-02T13:42:03.235Z,98955.47
2019-05-02T13:44:35.723Z,98950.45
2019-05-02T13:47:06.644Z,98947.49
2019-05-02T13:49:35.148Z,98942.63
2019-05-02T13:52:03.629Z,98942.64
2019-05-02T13:54:33.168Z,98933.18
2019-05-02T13:57:07.889Z,98926.63
2019-05-02T13:59:33.619Z,98919.23
2019-05-02T14:02:02.943Z,98917.20
2019-05-02T14:04:32.659Z,98910.27
2019-05-02T14:07:03.034Z,98913.11
2019-05-02T14:09:35.518Z,98906.35
2019-05-02T14:12:22.483Z,98914.62
2019-05-02T14:14:51.896Z,98914.89
2019-05-02T14:17:20.421Z,98910.47
2019-05-02T14:19:48.922Z,98905.09
2019-05-02T14:22:17.364Z,98897.44
2019-05-02T14:24:45.872Z,98894.30
2019-05-02T14:27:17.163Z,98885.17
2019-05-02T14:29:44.700Z,98874.92
2019-05-02T14:32:21.314Z,98878.36
2019-05-02T14:34:47.464Z,98867.65
2019-05-02T14:37:15.946Z,98862.88
2019-05-02T14:39:46.236Z,98868.30
2019-05-02T14:42:21.318Z,98861.79
2019-05-02T14:45:04.303Z,98857.92
2019-05-02T14:47:19.421Z,98847.45
2019-05-02T14:49:45.256Z,98845.30
2019-05-02T14:52:13.742Z,98845.02
2019-05-02T14:54:46.478Z,98841.84
2019-05-02T14:57:17.254Z,98838.67
2019-05-02T14:59:50.293Z,98844.39
2019-05-02T15:02:19.138Z,98850.08
2019-05-02T15:04:48.980Z,98849.81
2019-05-02T15:07:21.755Z,98810.16
2019-05-02T15:09:47.599Z,98846.54
2019-05-02T15:12:18.999Z,98840.92
2019-05-02T15:14:49.264Z,98847.86
2019-05-02T15:17:16.471Z,98837.56
2019-05-02T15:19:44.906Z,98833.28
2019-05-02T15:22:13.354Z,98839.68
2019-05-02T15:24:42.400Z,98829.47
2019-05-02T15:27:13.327Z,98833.08
2019-05-02T15:29:41.972Z,98831.84
2019-05-02T15:32:27.665Z,98828.88
2019-05-02T15:35:17.730Z,98823.18
2019-05-02T15:37:45.947Z,98822.48
2019-05-02T15:42:52.242Z,98823.62
2019-05-02T15:45:23.770Z,98822.05
2019-05-02T15:47:52.594Z,98825.82
2019-05-02T15:50:24.418Z,98825.82
2019-05-02T15:52:57.325Z,98827.17
2019-05-02T15:55:23.173Z,98827.44
2019-05-02T15:57:53.648Z,98824.23
2019-05-02T16:00:26.792Z,98818.88
2019-05-02T16:02:56.225Z,98822.14
2019-05-02T16:05:25.352Z,98830.48
2019-05-02T16:08:05.348Z,98831.29
2019-05-02T16:10:24.088Z,98835.86
2019-05-02T16:12:53.601Z,98833.95
2019-05-02T16:15:26.302Z,98833.13
2019-05-02T16:17:56.766Z,98827.47
2019-05-02T16:20:27.392Z,98828.24
2019-05-02T16:22:55.876Z,98830.41
2019-05-02T16:25:25.952Z,98855.08
2019-05-02T16:27:57.451Z,98872.97
2019-05-02T16:30:25.034Z,98911.66
2019-05-02T16:32:55.287Z,98913.88
2019-05-02T16:35:28.345Z,98914.22
2019-05-02T16:37:56.837Z,98919.93
2019-05-02T16:40:29.774Z,98911.70
2019-05-02T16:42:56.327Z,98917.24
2019-05-02T16:45:25.119Z,98911.93
2019-05-02T16:47:58.693Z,98923.19
2019-05-02T16:50:27.490Z,98916.23
2019-05-02T16:52:54.215Z,98944.91
2019-05-02T16:55:26.493Z,98906.28
2019-05-02T16:57:56.708Z,98956.75
2019-05-02T17:00:25.556Z,98970.58
2019-05-02T17:02:54.141Z,98994.06
2019-05-02T17:05:22.623Z,99006.72
2019-05-02T17:08:10.574Z,99003.63
2019-05-02T17:10:42.221Z,99007.70
2019-05-02T17:13:12.511Z,99004.52
2019-05-02T17:15:42.759Z,98995.85
2019-05-02T17:18:17.208Z,98993.33
2019-05-02T17:20:41.672Z,98989.33
2019-05-02T17:23:10.088Z,98984.17
2019-05-02T17:25:38.582Z,98981.22
2019-05-02T17:28:10.537Z,98978.09
2019-05-02T17:30:38.815Z,98976.77
2019-05-02T17:33:14.338Z,98974.05
2019-05-02T17:35:43.390Z,98973.53
2019-05-02T17:38:08.146Z,98974.27
2019-05-02T17:40:36.643Z,98988.30
2019-05-02T17:43:07.039Z,98989.63
2019-05-02T17:45:38.556Z,98989.77
2019-05-02T17:48:10.413Z,98993.80
2019-05-02T17:50:59.223Z,98989.20
2019-05-02T17:53:26.241Z,98985.80
2019-05-02T17:55:54.841Z,98982.91
2019-05-02T17:58:23.235Z,98957.17
2019-05-02T18:00:56.180Z,98989.94
2019-05-02T18:03:30.721Z,98988.52
2019-05-02T18:05:53.680Z,98988.03
2019-05-02T18:08:22.175Z,98985.20
2019-05-02T18:10:56.094Z,98985.72
2019-05-02T18:13:22.686Z,98976.62
2019-05-02T18:15:53.247Z,98982.84
2019-05-02T18:18:22.146Z,98984.09
2019-05-02T18:20:52.720Z,98984.91
2019-05-02T18:23:25.743Z,98984.96
2019-05-02T18:25:52.562Z,98987.92
2019-05-02T18:28:25.913Z,98984.45
2019-05-02T18:30:52.465Z,98982.65
2019-05-02T18:33:22.651Z,98981.15
2019-05-02T18:35:52.612Z,98989.51
2019-05-02T18:38:22.271Z,98983.07
2019-05-02T18:40:52.418Z,98991.18
2019-05-02T18:43:22.258Z,98985.56
2019-05-02T18:45:51.555Z,98990.70
2019-05-02T18:48:21.865Z,98990.27
2019-05-02T18:50:52.434Z,98999.70
2019-05-02T18:53:25.702Z,98999.55
2019-05-02T18:55:51.877Z,99000.41
2019-05-02T18:58:22.403Z,99002.55
2019-05-02T19:00:52.004Z,99004.99
2019-05-02T19:03:20.687Z,99011.97
2019-05-02T19:05:51.484Z,99003.48
2019-05-02T19:08:29.070Z,99012.13
2019-05-02T19:11:02.491Z,99010.80
2019-05-02T19:13:19.872Z,99013.79
2019-05-02T19:15:49.017Z,99022.73
2019-05-02T19:18:18.416Z,99017.74
2019-05-02T19:20:57.457Z,99017.56
2019-05-02T19:23:24.433Z,99026.40
2019-05-02T19:25:52.988Z,99025.47
2019-05-02T19:28:23.286Z,99015.95
2019-05-02T19:30:52.098Z,99019.34
2019-05-02T19:33:21.583Z,99020.45
2019-05-02T19:35:52.574Z,99018.61
2019-05-02T19:38:22.564Z,99024.05
2019-05-02T19:40:52.040Z,99033.95
2019-05-02T19:43:22.919Z,99034.98
2019-05-02T19:45:53.921Z,99038.88
2019-05-02T19:48:33.019Z,99041.11
2019-05-02T19:51:02.378Z,99049.10
2019-05-02T19:53:32.272Z,99051.95
2019-05-02T19:56:03.068Z,99038.98
2019-05-02T19:58:36.765Z,99045.53
2019-05-02T20:03:34.909Z,99050.19
2019-05-02T20:06:06.056Z,99055.45
2019-05-02T20:08:33.844Z,99061.17
2019-05-02T20:11:02.418Z,99059.13
2019-05-02T20:13:32.717Z,99065.66
2019-05-02T20:16:06.058Z,99066.08
2019-05-02T20:18:42.542Z,99064.65
2019-05-02T20:21:12.107Z,99069.96
2019-05-02T20:23:39.727Z,99072.62
2019-05-02T20:26:09.500Z,99066.80
2019-05-02T20:28:38.495Z,99070.97
2019-05-02T20:31:06.981Z,99076.23
2019-05-02T20:33:35.388Z,99074.80
2019-05-02T20:36:04.088Z,99076.95
2019-05-02T20:38:32.615Z,99082.91
2019-05-02T20:41:02.765Z,99083.02
2019-05-02T20:43:32.300Z,99091.70
2019-05-02T20:46:02.600Z,99099.97
2019-05-02T20:48:32.263Z,99095.17
2019-05-02T20:51:02.658Z,99095.06
2019-05-02T20:53:34.120Z,99086.69
2019-05-02T20:56:01.923Z,99084.63
2019-05-02T20:58:32.496Z,99085.87
2019-05-02T21:01:06.240Z,99084.66
2019-05-02T21:03:32.029Z,99084.66
2019-05-02T21:06:08.161Z,99091.91
2019-05-02T21:08:54.473Z,99086.28
2019-05-02T21:11:24.428Z,99086.52
2019-05-02T21:13:52.954Z,99082.23
2019-05-02T21:16:21.885Z,99088.05
2019-05-02T21:18:50.335Z,99088.87
2019-05-02T21:21:21.976Z,99086.80
2019-05-02T21:23:52.806Z,99092.20
2019-05-02T21:26:22.019Z,99084.75
2019-05-02T21:28:52.188Z,99086.19
2019-05-02T21:31:22.391Z,99077.64
2019-05-02T21:33:51.976Z,99086.92
2019-05-02T21:36:22.517Z,99088.25
2019-05-02T21:38:52.153Z,99087.54
2019-05-02T21:41:22.244Z,99089.48
2019-05-02T21:43:51.878Z,99088.86
2019-05-02T21:46:22.185Z,99096.64
2019-05-02T21:48:52.463Z,99099.06
2019-05-02T21:51:34.431Z,99099.06
2019-05-02T21:54:22.705Z,99096.72
2019-05-02T21:56:55.910Z,99097.16
2019-05-02T21:59:24.456Z,99100.22
2019-05-02T22:01:55.096Z,99099.80
2019-05-02T22:04:23.661Z,99097.87
2019-05-02T22:06:52.473Z,99095.52
2019-05-02T22:09:23.079Z,99092.25
2019-05-02T22:11:52.225Z,99094.63
2019-05-02T22:14:22.323Z,99092.17
2019-05-02T22:16:53.016Z,99091.16
2019-05-02T22:19:21.205Z,99094.50
2019-05-02T22:21:49.842Z,99094.30
2019-05-02T22:24:18.469Z,99095.72
2019-05-02T22:26:46.965Z,99093.58
2019-05-02T22:29:15.375Z,99089.91
2019-05-02T22:31:43.807Z,99094.50
2019-05-02T22:34:12.962Z,99096.23
2019-05-02T22:36:42.098Z,99092.05
2019-05-02T22:39:22.237Z,99094.91
2019-05-02T22:41:52.469Z,99095.63
2019-05-02T22:44:21.846Z,99095.84
2019-05-02T22:46:52.065Z,99099.30
2019-05-02T22:49:22.479Z,99090.20
2019-05-02T22:51:51.012Z,99095.13
2019-05-02T22:54:27.636Z,99099.30
2019-05-02T22:56:49.570Z,99095.09
2019-05-02T22:59:17.978Z,99095.09
2019-05-02T23:01:46.448Z,99094.68
2019-05-02T23:04:14.958Z,99097.47
2019-05-02T23:06:44.293Z,99097.03
2019-05-02T23:09:13.032Z,99092.33
2019-05-02T23:11:42.565Z,99098.86
2019-05-02T23:14:11.316Z,99099.68
2019-05-02T23:16:42.319Z,99104.48
2019-05-02T23:19:12.035Z,99105.50
2019-05-02T23:21:41.942Z,99104.10
2019-05-02T23:24:14.475Z,99099.06
2019-05-02T23:26:43.848Z,99099.06
2019-05-02T23:29:13.985Z,99103.79
2019-05-02T23:31:42.471Z,99098.66
2019-05-02T23:34:11.016Z,99104.28
2019-05-02T23:36:41.480Z,99106.73
2019-05-02T23:39:12.301Z,99111.13
2019-05-02T23:41:42.036Z,99111.22
2019-05-02T23:44:12.288Z,99108.45
2019-05-02T23:46:42.409Z,99103.86
2019-05-02T23:49:12.821Z,99112.64
2019-05-02T23:51:42.760Z,99108.79
2019-05-02T23:54:12.849Z,99105.42
2019-05-02T23:56:43.139Z,99108.79
2019-05-02T23:59:12.036Z,99110.63
